sensor_id;sensor_type;location;lat;lon;timestamp;P1;durP1;ratioP1;P2;durP2;ratioP2
72127;SDS011;60000;51.030;7.024;2024-02-21T00:02:02;11.07;;;2.97;;
72127;SDS011;60000;51.030;7.024;2024-02-21T00:04:27;11.50;;;3.10;;
72127;SDS011;60000;51.030;7.024;2024-02-21T00:06:53;10.57;;;3.07;;
72127;SDS011;60000;51.030;7.024;2024-02-21T00:09:18;10.03;;;3.37;;
72127;SDS011;60000;51.030;7.024;2024-02-21T00:11:44;13.80;;;4.00;;
72127;SDS011;60000;51.030;7.024;2024-02-21T00:14:09;11.10;;;3.33;;
72127;SDS011;60000;51.030;7.024;2024-02-21T00:16:35;13.43;;;3.57;;
72127;SDS011;60000;51.030;7.024;2024-02-21T00:19:00;9.48;;;3.10;;
72127;SDS011;60000;51.030;7.024;2024-02-21T00:21:25;12.87;;;3.40;;
72127;SDS011;60000;51.030;7.024;2024-02-21T00:23:51;15.63;;;3.53;;
72127;SDS011;60000;51.030;7.024;2024-02-21T00:26:16;14.70;;;4.27;;
72127;SDS011;60000;51.030;7.024;2024-02-21T00:28:41;14.73;;;3.37;;
72127;SDS011;60000;51.030;7.024;2024-02-21T00:31:07;11.57;;;3.97;;
72127;SDS011;60000;51.030;7.024;2024-02-21T00:33:32;11.47;;;3.27;;
72127;SDS011;60000;51.030;7.024;2024-02-21T00:35:57;14.30;;;3.70;;
72127;SDS011;60000;51.030;7.024;2024-02-21T00:38:22;13.70;;;3.13;;
72127;SDS011;60000;51.030;7.024;2024-02-21T00:40:48;13.07;;;3.92;;
72127;SDS011;60000;51.030;7.024;2024-02-21T00:43:13;15.37;;;4.27;;
72127;SDS011;60000;51.030;7.024;2024-02-21T00:45:38;14.80;;;4.27;;
72127;SDS011;60000;51.030;7.024;2024-02-21T00:48:04;12.87;;;4.40;;
72127;SDS011;60000;51.030;7.024;2024-02-21T00:50:30;11.80;;;3.83;;
72127;SDS011;60000;51.030;7.024;2024-02-21T00:52:55;12.77;;;3.90;;
72127;SDS011;60000;51.030;7.024;2024-02-21T00:55:21;14.97;;;4.30;;
72127;SDS011;60000;51.030;7.024;2024-02-21T00:57:46;12.67;;;3.93;;
72127;SDS011;60000;51.030;7.024;2024-02-21T01:00:11;12.73;;;4.00;;
72127;SDS011;60000;51.030;7.024;2024-02-21T01:02:38;13.80;;;3.72;;
72127;SDS011;60000;51.030;7.024;2024-02-21T01:05:03;15.43;;;4.10;;
72127;SDS011;60000;51.030;7.024;2024-02-21T01:07:29;17.63;;;4.05;;
72127;SDS011;60000;51.030;7.024;2024-02-21T01:09:54;12.00;;;3.47;;
72127;SDS011;60000;51.030;7.024;2024-02-21T01:12:19;16.20;;;3.80;;
72127;SDS011;60000;51.030;7.024;2024-02-21T01:14:44;10.87;;;3.53;;
72127;SDS011;60000;51.030;7.024;2024-02-21T01:17:11;12.48;;;3.90;;
72127;SDS011;60000;51.030;7.024;2024-02-21T01:19:37;15.67;;;4.33;;
72127;SDS011;60000;51.030;7.024;2024-02-21T01:22:02;13.70;;;3.97;;
72127;SDS011;60000;51.030;7.024;2024-02-21T01:24:27;15.45;;;4.22;;
72127;SDS011;60000;51.030;7.024;2024-02-21T01:26:53;14.00;;;4.13;;
72127;SDS011;60000;51.030;7.024;2024-02-21T01:29:18;12.40;;;4.10;;
72127;SDS011;60000;51.030;7.024;2024-02-21T01:31:43;10.73;;;3.93;;
72127;SDS011;60000;51.030;7.024;2024-02-21T01:34:09;13.90;;;4.07;;
72127;SDS011;60000;51.030;7.024;2024-02-21T01:36:34;14.77;;;4.00;;
72127;SDS011;60000;51.030;7.024;2024-02-21T01:39:00;12.68;;;4.10;;
72127;SDS011;60000;51.030;7.024;2024-02-21T01:41:25;14.38;;;4.07;;
72127;SDS011;60000;51.030;7.024;2024-02-21T01:43:50;12.87;;;4.03;;
72127;SDS011;60000;51.030;7.024;2024-02-21T01:46:16;14.73;;;3.70;;
72127;SDS011;60000;51.030;7.024;2024-02-21T01:48:41;12.73;;;4.10;;
72127;SDS011;60000;51.030;7.024;2024-02-21T01:51:06;16.50;;;4.00;;
72127;SDS011;60000;51.030;7.024;2024-02-21T01:53:36;14.60;;;3.50;;
72127;SDS011;60000;51.030;7.024;2024-02-21T01:56:05;16.38;;;3.75;;
72127;SDS011;60000;51.030;7.024;2024-02-21T01:58:31;13.65;;;4.00;;
72127;SDS011;60000;51.030;7.024;2024-02-21T02:00:58;11.35;;;3.42;;
72127;SDS011;60000;51.030;7.024;2024-02-21T02:03:24;15.37;;;4.40;;
72127;SDS011;60000;51.030;7.024;2024-02-21T02:05:50;13.75;;;4.30;;
72127;SDS011;60000;51.030;7.024;2024-02-21T02:08:16;12.07;;;3.80;;
72127;SDS011;60000;51.030;7.024;2024-02-21T02:10:42;14.70;;;4.40;;
72127;SDS011;60000;51.030;7.024;2024-02-21T02:13:08;12.90;;;3.72;;
72127;SDS011;60000;51.030;7.024;2024-02-21T02:15:46;15.77;;;4.50;;
72127;SDS011;60000;51.030;7.024;2024-02-21T02:18:13;12.93;;;3.90;;
72127;SDS011;60000;51.030;7.024;2024-02-21T02:20:40;15.48;;;4.50;;
72127;SDS011;60000;51.030;7.024;2024-02-21T02:25:53;11.23;;;4.28;;
72127;SDS011;60000;51.030;7.024;2024-02-21T02:28:19;12.47;;;3.87;;
72127;SDS011;60000;51.030;7.024;2024-02-21T02:30:45;16.88;;;4.05;;
72127;SDS011;60000;51.030;7.024;2024-02-21T02:33:10;20.37;;;4.40;;
72127;SDS011;60000;51.030;7.024;2024-02-21T02:35:36;13.23;;;3.75;;
72127;SDS011;60000;51.030;7.024;2024-02-21T02:38:01;15.83;;;4.20;;
72127;SDS011;60000;51.030;7.024;2024-02-21T02:40:27;16.08;;;4.50;;
72127;SDS011;60000;51.030;7.024;2024-02-21T02:42:53;14.57;;;4.30;;
72127;SDS011;60000;51.030;7.024;2024-02-21T02:45:20;13.40;;;3.63;;
72127;SDS011;60000;51.030;7.024;2024-02-21T02:47:48;15.40;;;4.57;;
72127;SDS011;60000;51.030;7.024;2024-02-21T02:50:13;12.05;;;4.00;;
72127;SDS011;60000;51.030;7.024;2024-02-21T02:52:39;14.20;;;4.00;;
72127;SDS011;60000;51.030;7.024;2024-02-21T02:55:04;14.13;;;3.77;;
72127;SDS011;60000;51.030;7.024;2024-02-21T02:57:30;10.30;;;3.70;;
72127;SDS011;60000;51.030;7.024;2024-02-21T02:59:56;14.20;;;3.50;;
72127;SDS011;60000;51.030;7.024;2024-02-21T03:02:21;8.40;;;3.37;;
72127;SDS011;60000;51.030;7.024;2024-02-21T03:04:47;13.40;;;3.92;;
72127;SDS011;60000;51.030;7.024;2024-02-21T03:07:13;12.93;;;3.17;;
72127;SDS011;60000;51.030;7.024;2024-02-21T03:09:39;15.00;;;3.45;;
72127;SDS011;60000;51.030;7.024;2024-02-21T03:12:05;15.23;;;4.53;;
72127;SDS011;60000;51.030;7.024;2024-02-21T03:14:32;12.30;;;3.55;;
72127;SDS011;60000;51.030;7.024;2024-02-21T03:16:58;12.10;;;3.63;;
72127;SDS011;60000;51.030;7.024;2024-02-21T03:19:24;11.75;;;3.22;;
72127;SDS011;60000;51.030;7.024;2024-02-21T03:21:50;12.60;;;3.78;;
72127;SDS011;60000;51.030;7.024;2024-02-21T03:24:16;11.43;;;3.53;;
72127;SDS011;60000;51.030;7.024;2024-02-21T03:26:41;12.48;;;3.80;;
72127;SDS011;60000;51.030;7.024;2024-02-21T03:29:07;14.57;;;4.10;;
72127;SDS011;60000;51.030;7.024;2024-02-21T03:31:33;12.33;;;3.50;;
72127;SDS011;60000;51.030;7.024;2024-02-21T03:33:59;10.65;;;2.97;;
72127;SDS011;60000;51.030;7.024;2024-02-21T03:36:24;9.77;;;3.50;;
72127;SDS011;60000;51.030;7.024;2024-02-21T03:38:49;15.67;;;4.80;;
72127;SDS011;60000;51.030;7.024;2024-02-21T03:41:15;9.20;;;3.47;;
72127;SDS011;60000;51.030;7.024;2024-02-21T03:43:40;10.60;;;3.47;;
72127;SDS011;60000;51.030;7.024;2024-02-21T03:46:05;10.60;;;3.23;;
72127;SDS011;60000;51.030;7.024;2024-02-21T03:48:31;10.82;;;3.85;;
72127;SDS011;60000;51.030;7.024;2024-02-21T03:50:57;10.40;;;3.30;;
72127;SDS011;60000;51.030;7.024;2024-02-21T03:53:22;12.35;;;3.35;;
72127;SDS011;60000;51.030;7.024;2024-02-21T03:55:48;9.23;;;2.93;;
72127;SDS011;60000;51.030;7.024;2024-02-21T03:58:13;11.63;;;3.30;;
72127;SDS011;60000;51.030;7.024;2024-02-21T04:00:38;7.63;;;2.97;;
72127;SDS011;60000;51.030;7.024;2024-02-21T04:03:04;9.85;;;2.90;;
72127;SDS011;60000;51.030;7.024;2024-02-21T04:05:30;11.63;;;2.97;;
72127;SDS011;60000;51.030;7.024;2024-02-21T04:07:55;10.37;;;2.90;;
72127;SDS011;60000;51.030;7.024;2024-02-21T04:10:20;12.47;;;3.60;;
72127;SDS011;60000;51.030;7.024;2024-02-21T04:12:45;9.13;;;3.23;;
72127;SDS011;60000;51.030;7.024;2024-02-21T04:15:11;12.10;;;3.70;;
72127;SDS011;60000;51.030;7.024;2024-02-21T04:17:36;9.93;;;3.30;;
72127;SDS011;60000;51.030;7.024;2024-02-21T04:20:03;10.95;;;3.30;;
72127;SDS011;60000;51.030;7.024;2024-02-21T04:22:30;13.10;;;3.67;;
72127;SDS011;60000;51.030;7.024;2024-02-21T04:25:01;13.57;;;3.53;;
72127;SDS011;60000;51.030;7.024;2024-02-21T04:27:27;12.80;;;3.30;;
72127;SDS011;60000;51.030;7.024;2024-02-21T04:29:53;11.27;;;3.40;;
72127;SDS011;60000;51.030;7.024;2024-02-21T04:32:18;12.88;;;3.53;;
72127;SDS011;60000;51.030;7.024;2024-02-21T04:34:43;10.73;;;2.90;;
72127;SDS011;60000;51.030;7.024;2024-02-21T04:37:09;10.60;;;3.20;;
72127;SDS011;60000;51.030;7.024;2024-02-21T04:39:34;8.63;;;3.47;;
72127;SDS011;60000;51.030;7.024;2024-02-21T04:41:59;10.07;;;2.90;;
72127;SDS011;60000;51.030;7.024;2024-02-21T04:44:25;12.10;;;3.53;;
72127;SDS011;60000;51.030;7.024;2024-02-21T04:46:50;11.33;;;3.60;;
72127;SDS011;60000;51.030;7.024;2024-02-21T04:49:16;13.20;;;3.47;;
72127;SDS011;60000;51.030;7.024;2024-02-21T04:51:41;13.93;;;3.28;;
72127;SDS011;60000;51.030;7.024;2024-02-21T04:54:06;11.82;;;3.88;;
72127;SDS011;60000;51.030;7.024;2024-02-21T04:56:32;8.23;;;2.80;;
72127;SDS011;60000;51.030;7.024;2024-02-21T04:58:57;12.47;;;4.00;;
72127;SDS011;60000;51.030;7.024;2024-02-21T05:01:22;8.37;;;3.07;;
72127;SDS011;60000;51.030;7.024;2024-02-21T05:03:48;11.23;;;3.47;;
72127;SDS011;60000;51.030;7.024;2024-02-21T05:06:14;9.65;;;3.55;;
72127;SDS011;60000;51.030;7.024;2024-02-21T05:08:40;11.50;;;3.27;;
72127;SDS011;60000;51.030;7.024;2024-02-21T05:11:05;16.75;;;3.85;;
72127;SDS011;60000;51.030;7.024;2024-02-21T05:13:31;12.87;;;3.97;;
72127;SDS011;60000;51.030;7.024;2024-02-21T05:15:56;13.97;;;4.30;;
72127;SDS011;60000;51.030;7.024;2024-02-21T05:18:21;8.83;;;3.20;;
72127;SDS011;60000;51.030;7.024;2024-02-21T05:20:47;10.23;;;2.90;;
72127;SDS011;60000;51.030;7.024;2024-02-21T05:23:12;8.80;;;3.20;;
72127;SDS011;60000;51.030;7.024;2024-02-21T05:25:37;12.47;;;3.23;;
72127;SDS011;60000;51.030;7.024;2024-02-21T05:28:03;10.73;;;3.33;;
72127;SDS011;60000;51.030;7.024;2024-02-21T05:30:29;11.35;;;3.20;;
72127;SDS011;60000;51.030;7.024;2024-02-21T05:32:54;10.15;;;3.05;;
72127;SDS011;60000;51.030;7.024;2024-02-21T05:35:24;9.23;;;3.10;;
72127;SDS011;60000;51.030;7.024;2024-02-21T05:37:50;10.40;;;3.35;;
72127;SDS011;60000;51.030;7.024;2024-02-21T05:40:17;7.57;;;2.93;;
72127;SDS011;60000;51.030;7.024;2024-02-21T05:42:43;12.07;;;3.45;;
72127;SDS011;60000;51.030;7.024;2024-02-21T05:45:08;10.67;;;3.57;;
72127;SDS011;60000;51.030;7.024;2024-02-21T05:47:34;9.30;;;3.27;;
72127;SDS011;60000;51.030;7.024;2024-02-21T05:49:59;9.48;;;2.75;;
72127;SDS011;60000;51.030;7.024;2024-02-21T05:52:24;9.85;;;3.08;;
72127;SDS011;60000;51.030;7.024;2024-02-21T05:54:50;8.87;;;3.43;;
72127;SDS011;60000;51.030;7.024;2024-02-21T05:57:16;11.77;;;2.97;;
72127;SDS011;60000;51.030;7.024;2024-02-21T05:59:42;7.65;;;3.10;;
72127;SDS011;60000;51.030;7.024;2024-02-21T06:02:08;10.00;;;3.08;;
72127;SDS011;60000;51.030;7.024;2024-02-21T06:04:34;8.90;;;2.97;;
72127;SDS011;60000;51.030;7.024;2024-02-21T06:06:59;16.30;;;3.57;;
72127;SDS011;60000;51.030;7.024;2024-02-21T06:09:25;10.23;;;2.65;;
72127;SDS011;60000;51.030;7.024;2024-02-21T06:11:50;9.13;;;2.73;;
72127;SDS011;60000;51.030;7.024;2024-02-21T06:14:15;10.43;;;3.37;;
72127;SDS011;60000;51.030;7.024;2024-02-21T06:16:41;11.87;;;3.67;;
72127;SDS011;60000;51.030;7.024;2024-02-21T06:19:08;10.95;;;3.40;;
72127;SDS011;60000;51.030;7.024;2024-02-21T06:21:34;12.97;;;3.47;;
72127;SDS011;60000;51.030;7.024;2024-02-21T06:23:59;9.43;;;2.97;;
72127;SDS011;60000;51.030;7.024;2024-02-21T06:26:24;8.87;;;2.77;;
72127;SDS011;60000;51.030;7.024;2024-02-21T06:28:51;13.90;;;4.00;;
72127;SDS011;60000;51.030;7.024;2024-02-21T06:31:16;10.90;;;3.40;;
72127;SDS011;60000;51.030;7.024;2024-02-21T06:33:42;11.32;;;3.13;;
72127;SDS011;60000;51.030;7.024;2024-02-21T06:36:08;10.60;;;3.27;;
72127;SDS011;60000;51.030;7.024;2024-02-21T06:38:33;7.50;;;2.80;;
72127;SDS011;60000;51.030;7.024;2024-02-21T06:41:01;10.77;;;2.80;;
72127;SDS011;60000;51.030;7.024;2024-02-21T06:43:27;11.18;;;3.45;;
72127;SDS011;60000;51.030;7.024;2024-02-21T06:45:53;10.73;;;3.57;;
72127;SDS011;60000;51.030;7.024;2024-02-21T06:48:20;9.40;;;3.00;;
72127;SDS011;60000;51.030;7.024;2024-02-21T06:50:45;10.97;;;2.83;;
72127;SDS011;60000;51.030;7.024;2024-02-21T06:53:10;9.85;;;2.83;;
72127;SDS011;60000;51.030;7.024;2024-02-21T06:55:36;7.10;;;2.83;;
72127;SDS011;60000;51.030;7.024;2024-02-21T06:58:01;8.37;;;2.53;;
72127;SDS011;60000;51.030;7.024;2024-02-21T07:00:28;8.50;;;2.40;;
72127;SDS011;60000;51.030;7.024;2024-02-21T07:02:54;9.15;;;3.00;;
72127;SDS011;60000;51.030;7.024;2024-02-21T07:05:19;11.03;;;3.17;;
72127;SDS011;60000;51.030;7.024;2024-02-21T07:07:44;10.30;;;3.30;;
72127;SDS011;60000;51.030;7.024;2024-02-21T07:10:10;12.20;;;3.77;;
72127;SDS011;60000;51.030;7.024;2024-02-21T07:12:36;9.80;;;3.15;;
72127;SDS011;60000;51.030;7.024;2024-02-21T07:15:03;9.23;;;2.97;;
72127;SDS011;60000;51.030;7.024;2024-02-21T07:17:29;9.15;;;2.50;;
72127;SDS011;60000;51.030;7.024;2024-02-21T07:19:55;10.27;;;3.40;;
72127;SDS011;60000;51.030;7.024;2024-02-21T07:22:21;12.43;;;3.67;;
72127;SDS011;60000;51.030;7.024;2024-02-21T07:24:47;10.17;;;2.83;;
72127;SDS011;60000;51.030;7.024;2024-02-21T07:27:13;8.80;;;3.10;;
72127;SDS011;60000;51.030;7.024;2024-02-21T07:29:40;8.05;;;3.10;;
72127;SDS011;60000;51.030;7.024;2024-02-21T07:32:05;9.87;;;3.07;;
72127;SDS011;60000;51.030;7.024;2024-02-21T07:34:31;12.63;;;3.53;;
72127;SDS011;60000;51.030;7.024;2024-02-21T07:36:56;10.18;;;2.88;;
72127;SDS011;60000;51.030;7.024;2024-02-21T07:39:22;7.20;;;2.60;;
72127;SDS011;60000;51.030;7.024;2024-02-21T07:41:47;9.60;;;2.60;;
72127;SDS011;60000;51.030;7.024;2024-02-21T07:44:14;9.88;;;3.10;;
72127;SDS011;60000;51.030;7.024;2024-02-21T07:46:40;8.32;;;2.70;;
72127;SDS011;60000;51.030;7.024;2024-02-21T07:49:05;8.43;;;2.83;;
72127;SDS011;60000;51.030;7.024;2024-02-21T07:51:30;8.77;;;2.83;;
72127;SDS011;60000;51.030;7.024;2024-02-21T07:53:55;10.37;;;2.73;;
72127;SDS011;60000;51.030;7.024;2024-02-21T07:56:21;8.83;;;2.77;;
72127;SDS011;60000;51.030;7.024;2024-02-21T07:58:46;7.85;;;2.55;;
72127;SDS011;60000;51.030;7.024;2024-02-21T08:01:11;9.50;;;2.75;;
72127;SDS011;60000;51.030;7.024;2024-02-21T08:03:45;10.87;;;3.07;;
72127;SDS011;60000;51.030;7.024;2024-02-21T08:06:11;9.43;;;2.30;;
72127;SDS011;60000;51.030;7.024;2024-02-21T08:08:37;9.82;;;2.70;;
72127;SDS011;60000;51.030;7.024;2024-02-21T08:11:03;6.63;;;2.43;;
72127;SDS011;60000;51.030;7.024;2024-02-21T08:13:28;9.50;;;2.60;;
72127;SDS011;60000;51.030;7.024;2024-02-21T08:15:54;9.30;;;2.70;;
72127;SDS011;60000;51.030;7.024;2024-02-21T08:18:19;9.47;;;2.40;;
72127;SDS011;60000;51.030;7.024;2024-02-21T08:20:44;8.73;;;2.50;;
72127;SDS011;60000;51.030;7.024;2024-02-21T08:23:10;9.37;;;2.80;;
72127;SDS011;60000;51.030;7.024;2024-02-21T08:25:35;8.50;;;2.33;;
72127;SDS011;60000;51.030;7.024;2024-02-21T08:28:00;11.63;;;3.00;;
72127;SDS011;60000;51.030;7.024;2024-02-21T08:30:26;10.52;;;2.75;;
72127;SDS011;60000;51.030;7.024;2024-02-21T08:32:52;13.17;;;2.73;;
72127;SDS011;60000;51.030;7.024;2024-02-21T08:35:19;8.88;;;2.53;;
72127;SDS011;60000;51.030;7.024;2024-02-21T08:37:44;10.30;;;2.90;;
72127;SDS011;60000;51.030;7.024;2024-02-21T08:40:12;7.85;;;2.50;;
72127;SDS011;60000;51.030;7.024;2024-02-21T08:42:38;8.75;;;2.42;;
72127;SDS011;60000;51.030;7.024;2024-02-21T08:45:04;10.63;;;3.20;;
72127;SDS011;60000;51.030;7.024;2024-02-21T08:47:30;9.68;;;2.70;;
72127;SDS011;60000;51.030;7.024;2024-02-21T08:49:55;11.43;;;3.13;;
72127;SDS011;60000;51.030;7.024;2024-02-21T08:52:20;9.90;;;2.83;;
72127;SDS011;60000;51.030;7.024;2024-02-21T08:54:46;10.23;;;3.10;;
72127;SDS011;60000;51.030;7.024;2024-02-21T08:57:11;12.77;;;3.33;;
72127;SDS011;60000;51.030;7.024;2024-02-21T08:59:38;10.48;;;2.50;;
72127;SDS011;60000;51.030;7.024;2024-02-21T09:02:04;7.85;;;2.75;;
72127;SDS011;60000;51.030;7.024;2024-02-21T09:04:29;12.77;;;2.80;;
72127;SDS011;60000;51.030;7.024;2024-02-21T09:06:55;12.43;;;2.90;;
72127;SDS011;60000;51.030;7.024;2024-02-21T09:09:21;10.85;;;3.03;;
72127;SDS011;60000;51.030;7.024;2024-02-21T09:11:46;12.53;;;3.13;;
72127;SDS011;60000;51.030;7.024;2024-02-21T09:14:11;11.47;;;3.30;;
72127;SDS011;60000;51.030;7.024;2024-02-21T09:16:37;11.30;;;3.60;;
72127;SDS011;60000;51.030;7.024;2024-02-21T09:19:02;11.37;;;4.63;;
72127;SDS011;60000;51.030;7.024;2024-02-21T09:21:27;10.43;;;3.00;;
72127;SDS011;60000;51.030;7.024;2024-02-21T09:23:53;11.27;;;3.00;;
72127;SDS011;60000;51.030;7.024;2024-02-21T09:26:18;12.20;;;3.03;;
72127;SDS011;60000;51.030;7.024;2024-02-21T09:28:44;11.50;;;3.70;;
72127;SDS011;60000;51.030;7.024;2024-02-21T09:31:10;9.57;;;2.50;;
72127;SDS011;60000;51.030;7.024;2024-02-21T09:33:35;12.73;;;3.10;;
72127;SDS011;60000;51.030;7.024;2024-02-21T09:36:02;9.30;;;2.80;;
72127;SDS011;60000;51.030;7.024;2024-02-21T09:38:27;10.15;;;2.90;;
72127;SDS011;60000;51.030;7.024;2024-02-21T09:41:38;10.73;;;2.77;;
72127;SDS011;60000;51.030;7.024;2024-02-21T09:43:50;12.85;;;2.90;;
72127;SDS011;60000;51.030;7.024;2024-02-21T09:46:18;9.40;;;3.37;;
72127;SDS011;60000;51.030;7.024;2024-02-21T09:51:42;12.10;;;3.40;;
72127;SDS011;60000;51.030;7.024;2024-02-21T09:54:09;8.67;;;2.73;;
72127;SDS011;60000;51.030;7.024;2024-02-21T09:56:34;10.07;;;2.70;;
72127;SDS011;60000;51.030;7.024;2024-02-21T09:59:01;13.55;;;2.97;;
72127;SDS011;60000;51.030;7.024;2024-02-21T10:01:29;11.25;;;2.85;;
72127;SDS011;60000;51.030;7.024;2024-02-21T10:03:56;9.97;;;3.17;;
72127;SDS011;60000;51.030;7.024;2024-02-21T10:06:22;7.35;;;2.42;;
72127;SDS011;60000;51.030;7.024;2024-02-21T10:08:54;9.90;;;2.50;;
72127;SDS011;60000;51.030;7.024;2024-02-21T10:11:23;12.17;;;2.53;;
72127;SDS011;60000;51.030;7.024;2024-02-21T10:13:49;11.25;;;3.13;;
72127;SDS011;60000;51.030;7.024;2024-02-21T10:16:15;9.75;;;2.60;;
72127;SDS011;60000;51.030;7.024;2024-02-21T10:18:40;10.30;;;2.97;;
72127;SDS011;60000;51.030;7.024;2024-02-21T10:21:06;10.43;;;2.87;;
72127;SDS011;60000;51.030;7.024;2024-02-21T10:23:46;8.85;;;2.75;;
72127;SDS011;60000;51.030;7.024;2024-02-21T10:26:12;9.05;;;2.65;;
72127;SDS011;60000;51.030;7.024;2024-02-21T10:28:39;8.63;;;2.40;;
72127;SDS011;60000;51.030;7.024;2024-02-21T10:31:10;9.90;;;2.50;;
72127;SDS011;60000;51.030;7.024;2024-02-21T10:33:37;12.90;;;3.00;;
72127;SDS011;60000;51.030;7.024;2024-02-21T10:36:09;8.80;;;2.70;;
72127;SDS011;60000;51.030;7.024;2024-02-21T10:38:39;12.23;;;2.85;;
72127;SDS011;60000;51.030;7.024;2024-02-21T10:41:05;7.07;;;2.65;;
72127;SDS011;60000;51.030;7.024;2024-02-21T10:43:33;7.78;;;2.45;;
72127;SDS011;60000;51.030;7.024;2024-02-21T10:46:05;8.68;;;2.65;;
72127;SDS011;60000;51.030;7.024;2024-02-21T10:48:43;11.48;;;2.80;;
72127;SDS011;60000;51.030;7.024;2024-02-21T10:53:47;8.48;;;2.47;;
72127;SDS011;60000;51.030;7.024;2024-02-21T10:58:59;9.05;;;2.70;;
72127;SDS011;60000;51.030;7.024;2024-02-21T11:01:25;8.98;;;3.00;;
72127;SDS011;60000;51.030;7.024;2024-02-21T11:03:54;7.35;;;2.38;;
72127;SDS011;60000;51.030;7.024;2024-02-21T11:06:22;11.35;;;2.47;;
72127;SDS011;60000;51.030;7.024;2024-02-21T11:08:59;10.70;;;2.88;;
72127;SDS011;60000;51.030;7.024;2024-02-21T11:11:25;9.48;;;3.22;;
72127;SDS011;60000;51.030;7.024;2024-02-21T11:13:51;10.90;;;2.80;;
72127;SDS011;60000;51.030;7.024;2024-02-21T11:16:22;8.73;;;2.80;;
72127;SDS011;60000;51.030;7.024;2024-02-21T11:18:48;11.18;;;2.72;;
72127;SDS011;60000;51.030;7.024;2024-02-21T11:21:14;9.63;;;2.55;;
72127;SDS011;60000;51.030;7.024;2024-02-21T11:23:39;10.33;;;2.40;;
72127;SDS011;60000;51.030;7.024;2024-02-21T11:26:08;10.13;;;2.40;;
72127;SDS011;60000;51.030;7.024;2024-02-21T11:28:35;9.48;;;2.40;;
72127;SDS011;60000;51.030;7.024;2024-02-21T11:31:07;12.02;;;2.53;;
72127;SDS011;60000;51.030;7.024;2024-02-21T11:33:39;8.57;;;2.33;;
72127;SDS011;60000;51.030;7.024;2024-02-21T11:36:06;8.47;;;2.43;;
72127;SDS011;60000;51.030;7.024;2024-02-21T11:38:31;8.52;;;2.38;;
72127;SDS011;60000;51.030;7.024;2024-02-21T11:40:56;9.23;;;2.30;;
72127;SDS011;60000;51.030;7.024;2024-02-21T11:43:23;12.05;;;2.90;;
72127;SDS011;60000;51.030;7.024;2024-02-21T11:45:48;11.38;;;2.67;;
72127;SDS011;60000;51.030;7.024;2024-02-21T11:48:14;11.17;;;2.43;;
72127;SDS011;60000;51.030;7.024;2024-02-21T11:50:39;9.17;;;2.43;;
72127;SDS011;60000;51.030;7.024;2024-02-21T11:53:05;7.93;;;2.43;;
72127;SDS011;60000;51.030;7.024;2024-02-21T11:55:30;10.65;;;2.38;;
72127;SDS011;60000;51.030;7.024;2024-02-21T11:57:56;11.37;;;2.40;;
72127;SDS011;60000;51.030;7.024;2024-02-21T12:00:21;9.83;;;2.10;;
72127;SDS011;60000;51.030;7.024;2024-02-21T12:02:49;8.27;;;1.95;;
72127;SDS011;60000;51.030;7.024;2024-02-21T12:05:15;8.32;;;2.42;;
72127;SDS011;60000;51.030;7.024;2024-02-21T12:07:40;11.50;;;2.20;;
72127;SDS011;60000;51.030;7.024;2024-02-21T12:10:09;9.93;;;2.40;;
72127;SDS011;60000;51.030;7.024;2024-02-21T12:12:35;8.55;;;2.13;;
72127;SDS011;60000;51.030;7.024;2024-02-21T12:15:02;9.07;;;2.10;;
72127;SDS011;60000;51.030;7.024;2024-02-21T12:17:29;9.68;;;2.35;;
72127;SDS011;60000;51.030;7.024;2024-02-21T12:19:55;9.77;;;2.40;;
72127;SDS011;60000;51.030;7.024;2024-02-21T12:22:21;6.90;;;2.10;;
72127;SDS011;60000;51.030;7.024;2024-02-21T12:24:47;7.37;;;2.27;;
72127;SDS011;60000;51.030;7.024;2024-02-21T12:27:13;7.43;;;1.98;;
72127;SDS011;60000;51.030;7.024;2024-02-21T12:29:39;10.60;;;2.27;;
72127;SDS011;60000;51.030;7.024;2024-02-21T12:32:04;8.32;;;2.17;;
72127;SDS011;60000;51.030;7.024;2024-02-21T12:34:30;11.10;;;2.30;;
72127;SDS011;60000;51.030;7.024;2024-02-21T12:36:58;8.75;;;2.15;;
72127;SDS011;60000;51.030;7.024;2024-02-21T12:39:24;8.38;;;1.95;;
72127;SDS011;60000;51.030;7.024;2024-02-21T12:41:49;8.47;;;2.00;;
72127;SDS011;60000;51.030;7.024;2024-02-21T12:44:15;10.20;;;2.10;;
72127;SDS011;60000;51.030;7.024;2024-02-21T12:46:43;8.70;;;2.08;;
72127;SDS011;60000;51.030;7.024;2024-02-21T12:49:08;8.40;;;2.27;;
72127;SDS011;60000;51.030;7.024;2024-02-21T12:51:34;11.57;;;2.23;;
72127;SDS011;60000;51.030;7.024;2024-02-21T12:54:00;6.15;;;2.33;;
72127;SDS011;60000;51.030;7.024;2024-02-21T12:56:26;8.63;;;2.13;;
72127;SDS011;60000;51.030;7.024;2024-02-21T12:58:56;7.95;;;2.25;;
72127;SDS011;60000;51.030;7.024;2024-02-21T13:01:21;9.82;;;2.40;;
72127;SDS011;60000;51.030;7.024;2024-02-21T13:03:46;9.27;;;2.00;;
72127;SDS011;60000;51.030;7.024;2024-02-21T13:06:12;9.37;;;2.20;;
72127;SDS011;60000;51.030;7.024;2024-02-21T13:08:37;9.43;;;2.13;;
72127;SDS011;60000;51.030;7.024;2024-02-21T13:11:03;7.90;;;2.03;;
72127;SDS011;60000;51.030;7.024;2024-02-21T13:13:29;7.05;;;1.77;;
72127;SDS011;60000;51.030;7.024;2024-02-21T13:15:55;13.37;;;2.53;;
72127;SDS011;60000;51.030;7.024;2024-02-21T13:18:20;8.13;;;1.80;;
72127;SDS011;60000;51.030;7.024;2024-02-21T13:20:45;7.77;;;2.00;;
72127;SDS011;60000;51.030;7.024;2024-02-21T13:23:11;7.13;;;1.60;;
72127;SDS011;60000;51.030;7.024;2024-02-21T13:25:36;9.18;;;1.90;;
72127;SDS011;60000;51.030;7.024;2024-02-21T13:28:02;6.57;;;1.90;;
72127;SDS011;60000;51.030;7.024;2024-02-21T13:30:28;8.23;;;1.87;;
72127;SDS011;60000;51.030;7.024;2024-02-21T13:32:54;7.85;;;1.83;;
72127;SDS011;60000;51.030;7.024;2024-02-21T13:35:19;8.65;;;2.15;;
72127;SDS011;60000;51.030;7.024;2024-02-21T13:37:45;6.82;;;2.30;;
72127;SDS011;60000;51.030;7.024;2024-02-21T13:40:11;6.65;;;1.88;;
72127;SDS011;60000;51.030;7.024;2024-02-21T13:42:38;6.57;;;1.65;;
72127;SDS011;60000;51.030;7.024;2024-02-21T13:45:04;9.93;;;2.30;;
72127;SDS011;60000;51.030;7.024;2024-02-21T13:47:30;7.72;;;2.20;;
72127;SDS011;60000;51.030;7.024;2024-02-21T13:49:56;8.67;;;2.23;;
72127;SDS011;60000;51.030;7.024;2024-02-21T13:52:22;7.32;;;2.00;;
72127;SDS011;60000;51.030;7.024;2024-02-21T13:54:47;7.50;;;1.70;;
72127;SDS011;60000;51.030;7.024;2024-02-21T13:57:13;6.83;;;1.70;;
72127;SDS011;60000;51.030;7.024;2024-02-21T13:59:39;6.07;;;1.80;;
72127;SDS011;60000;51.030;7.024;2024-02-21T14:02:04;9.10;;;2.20;;
72127;SDS011;60000;51.030;7.024;2024-02-21T14:04:32;9.80;;;2.50;;
72127;SDS011;60000;51.030;7.024;2024-02-21T14:06:57;7.47;;;2.27;;
72127;SDS011;60000;51.030;7.024;2024-02-21T14:09:22;9.53;;;2.17;;
72127;SDS011;60000;51.030;7.024;2024-02-21T14:11:48;9.60;;;2.60;;
72127;SDS011;60000;51.030;7.024;2024-02-21T14:14:13;9.25;;;2.30;;
72127;SDS011;60000;51.030;7.024;2024-02-21T14:16:40;7.63;;;2.10;;
72127;SDS011;60000;51.030;7.024;2024-02-21T14:19:05;6.78;;;2.15;;
72127;SDS011;60000;51.030;7.024;2024-02-21T14:21:32;9.55;;;2.15;;
72127;SDS011;60000;51.030;7.024;2024-02-21T14:23:57;11.10;;;2.58;;
72127;SDS011;60000;51.030;7.024;2024-02-21T14:26:23;8.30;;;2.20;;
72127;SDS011;60000;51.030;7.024;2024-02-21T14:28:48;7.47;;;2.00;;
72127;SDS011;60000;51.030;7.024;2024-02-21T14:31:14;7.47;;;2.20;;
72127;SDS011;60000;51.030;7.024;2024-02-21T14:33:39;6.97;;;2.33;;
72127;SDS011;60000;51.030;7.024;2024-02-21T14:36:05;5.97;;;1.93;;
72127;SDS011;60000;51.030;7.024;2024-02-21T14:38:30;6.10;;;1.77;;
72127;SDS011;60000;51.030;7.024;2024-02-21T14:40:56;7.63;;;1.93;;
72127;SDS011;60000;51.030;7.024;2024-02-21T14:43:21;8.17;;;2.30;;
72127;SDS011;60000;51.030;7.024;2024-02-21T14:45:47;10.27;;;1.93;;